Time;durP1;ratioP1;P1;durP2;ratioP2;P2;SDS_P1;SDS_P2;PMS_P1;PMS_P2;Temp;Humidity;BMP_temperature;BMP_pressure;BME280_temperature;BME280_humidity;BME280_pressure;Samples;Min_cycle;Max_cycle;Signal;HPM_P1;HPM_P2
2022/11/28 00:02:18;;;;;;;15.80;14.23;;;;;;;;;;5136251;27;20905;-81
2022/11/28 00:04:43;;;;;;;16.65;15.15;;;;;;;;;;5136308;27;20374;-81
2022/11/28 00:07:10;;;;;;;15.75;14.20;;;;;;;;;;5138951;27;20878;-80
2022/11/28 00:09:36;;;;;;;15.30;13.87;;;;;;;;;;5135916;27;20371;-81
2022/11/28 00:12:02;;;;;;;15.82;14.40;;;;;;;;;;5135718;27;20377;-83
2022/11/28 00:14:28;;;;;;;16.70;15.15;;;;;;;;;;5136241;27;20439;-82
2022/11/28 00:16:54;;;;;;;16.13;14.63;;;;;;;;;;5135893;27;20399;-82
2022/11/28 00:19:20;;;;;;;16.58;14.98;;;;;;;;;;5135060;27;20378;-80
2022/11/28 00:21:46;;;;;;;16.03;14.43;;;;;;;;;;5135833;27;20375;-82
2022/11/28 00:24:12;;;;;;;15.55;14.15;;;;;;;;;;5135823;27;20418;-82
2022/11/28 00:26:40;;;;;;;15.13;13.73;;;;;;;;;;5135890;27;20409;-82
2022/11/28 00:29:07;;;;;;;16.17;14.63;;;;;;;;;;5135812;27;20804;-82
2022/11/28 00:31:35;;;;;;;16.25;14.73;;;;;;;;;;5135834;27;20858;-82
2022/11/28 00:34:01;;;;;;;15.77;14.20;;;;;;;;;;5135933;27;20379;-81
2022/11/28 00:36:28;;;;;;;15.38;13.98;;;;;;;;;;5132531;27;20375;-81
2022/11/28 00:38:54;;;;;;;15.57;14.18;;;;;;;;;;5126980;27;20383;-80
2022/11/28 00:41:25;;;;;;;15.32;13.77;;;;;;;;;;5135118;27;20367;-82
2022/11/28 00:43:51;;;;;;;15.77;14.27;;;;;;;;;;5135340;27;20906;-80
2022/11/28 00:46:18;;;;;;;15.82;14.32;;;;;;;;;;5137554;27;20379;-80
2022/11/28 00:48:46;;;;;;;14.35;13.05;;;;;;;;;;5140618;27;20465;-81
2022/11/28 00:51:14;;;;;;;14.50;13.20;;;;;;;;;;5136955;27;20382;-81
2022/11/28 00:53:41;;;;;;;14.10;12.90;;;;;;;;;;5135062;27;20416;-81
2022/11/28 00:56:08;;;;;;;13.97;12.57;;;;;;;;;;5115880;27;20728;-81
2022/11/28 00:58:34;;;;;;;14.30;13.10;;;;;;;;;;5134659;27;20509;-80
2022/11/28 01:01:00;;;;;;;13.80;12.60;;;;;;;;;;5135461;27;20436;-80
2022/11/28 01:03:26;;;;;;;14.13;12.93;;;;;;;;;;5135615;27;20466;-80
2022/11/28 01:05:52;;;;;;;15.02;13.55;;;;;;;;;;5135104;27;20374;-82
2022/11/28 01:08:18;;;;;;;16.10;14.43;;;;;;;;;;5134750;27;20375;-82
2022/11/28 01:10:45;;;;;;;14.48;13.18;;;;;;;;;;5134833;27;20411;-82
2022/11/28 01:13:11;;;;;;;15.68;14.07;;;;;;;;;;5135071;27;20381;-80
2022/11/28 01:15:40;;;;;;;15.57;14.17;;;;;;;;;;5134777;27;20470;-80
2022/11/28 01:18:06;;;;;;;15.60;14.00;;;;;;;;;;5134954;27;20454;-82
2022/11/28 01:20:32;;;;;;;15.05;13.57;;;;;;;;;;5134689;27;20831;-81
2022/11/28 01:22:58;;;;;;;15.75;14.25;;;;;;;;;;5135066;27;20382;-82
2022/11/28 01:25:24;;;;;;;15.80;14.30;;;;;;;;;;5134921;27;20454;-82
2022/11/28 01:27:50;;;;;;;13.67;12.57;;;;;;;;;;5134968;27;20728;-82
2022/11/28 01:30:16;;;;;;;14.80;13.48;;;;;;;;;;5133869;27;20374;-81
2022/11/28 01:32:42;;;;;;;15.17;13.77;;;;;;;;;;5116142;27;20414;-82
2022/11/28 01:35:08;;;;;;;15.10;13.70;;;;;;;;;;5134482;27;20435;-81
2022/11/28 01:37:34;;;;;;;14.82;13.52;;;;;;;;;;5134234;27;20494;-81
2022/11/28 01:40:00;;;;;;;14.15;12.95;;;;;;;;;;5134320;27;20790;-82
2022/11/28 01:42:26;;;;;;;15.03;13.63;;;;;;;;;;5134231;27;20393;-81
2022/11/28 01:44:52;;;;;;;14.25;13.02;;;;;;;;;;5134438;27;20374;-80
2022/11/28 01:47:21;;;;;;;14.20;13.00;;;;;;;;;;5134524;27;20374;-80
2022/11/28 01:49:48;;;;;;;13.85;12.70;;;;;;;;;;5134240;27;20806;-82
2022/11/28 01:52:16;;;;;;;14.60;13.30;;;;;;;;;;5133718;27;20447;-81
2022/11/28 01:54:43;;;;;;;14.80;13.50;;;;;;;;;;5125102;27;20388;-81
2022/11/28 01:57:11;;;;;;;14.37;13.07;;;;;;;;;;5134285;27;20977;-80
2022/11/28 01:59:41;;;;;;;14.48;13.18;;;;;;;;;;5134273;27;20434;-81
2022/11/28 02:02:09;;;;;;;13.40;12.30;;;;;;;;;;5134277;27;20482;-82
2022/11/28 02:04:35;;;;;;;14.13;12.87;;;;;;;;;;5133821;27;20412;-82
2022/11/28 02:07:01;;;;;;;13.82;12.63;;;;;;;;;;5133700;27;20383;-82
2022/11/28 02:09:27;;;;;;;14.97;13.53;;;;;;;;;;5133862;27;20375;-81
2022/11/28 02:11:56;;;;;;;14.73;13.40;;;;;;;;;;5133848;27;20390;-81
2022/11/28 02:14:41;;;;;;;14.82;13.43;;;;;;;;;;5136451;27;20723;-82
2022/11/28 02:17:25;;;;;;;13.40;12.30;;;;;;;;;;5133823;27;20410;-82
2022/11/28 02:20:05;;;;;;;14.25;13.07;;;;;;;;;;5134088;27;20442;-82
2022/11/28 02:22:41;;;;;;;14.60;13.30;;;;;;;;;;5133798;27;20521;-82
2022/11/28 02:25:14;;;;;;;13.88;12.68;;;;;;;;;;5133717;27;20835;-82
2022/11/28 02:27:40;;;;;;;14.73;13.32;;;;;;;;;;5115147;27;20501;-80
2022/11/28 02:30:09;;;;;;;13.47;12.37;;;;;;;;;;5115122;27;20456;-81
2022/11/28 02:32:35;;;;;;;14.13;12.90;;;;;;;;;;5133529;27;20835;-81
2022/11/28 02:35:01;;;;;;;14.38;13.07;;;;;;;;;;5133567;27;20382;-83
2022/11/28 02:37:41;;;;;;;15.32;13.93;;;;;;;;;;5133677;27;20398;-80
2022/11/28 02:40:19;;;;;;;14.73;13.32;;;;;;;;;;5133254;27;20430;-80
2022/11/28 02:43:04;;;;;;;12.83;11.73;;;;;;;;;;5139662;27;20407;-80
2022/11/28 02:45:41;;;;;;;15.45;13.95;;;;;;;;;;5140071;27;20366;-82
2022/11/28 02:48:10;;;;;;;15.15;13.68;;;;;;;;;;5139239;27;20501;-80
2022/11/28 02:50:41;;;;;;;13.63;12.45;;;;;;;;;;5121626;27;20804;-80
2022/11/28 02:53:13;;;;;;;14.33;13.13;;;;;;;;;;5136992;27;20855;-82
2022/11/28 02:55:40;;;;;;;14.88;13.45;;;;;;;;;;5132668;27;20972;-82
2022/11/28 02:58:06;;;;;;;14.15;12.85;;;;;;;;;;5140384;27;20441;-82
2022/11/28 03:00:33;;;;;;;13.68;12.48;;;;;;;;;;5140477;27;20878;-81
2022/11/28 03:03:18;;;;;;;13.40;12.30;;;;;;;;;;5142383;27;20383;-81
2022/11/28 03:06:02;;;;;;;13.60;12.40;;;;;;;;;;5127892;27;20374;-80
2022/11/28 03:08:37;;;;;;;12.65;11.60;;;;;;;;;;5139983;27;20423;-80
2022/11/28 03:11:16;;;;;;;12.82;11.73;;;;;;;;;;5121498;27;20759;-81
2022/11/28 03:13:45;;;;;;;13.82;12.63;;;;;;;;;;5140301;27;20382;-80
2022/11/28 03:16:14;;;;;;;12.93;11.77;;;;;;;;;;5134116;27;20771;-81
2022/11/28 03:19:00;;;;;;;13.07;11.93;;;;;;;;;;5120486;27;20411;-82
2022/11/28 03:21:26;;;;;;;13.07;11.98;;;;;;;;;;5125637;27;20412;-82
2022/11/28 03:23:57;;;;;;;12.60;11.45;;;;;;;;;;5138313;27;20418;-80
2022/11/28 03:26:26;;;;;;;13.77;12.48;;;;;;;;;;5139571;27;20414;-80
2022/11/28 03:28:55;;;;;;;14.88;13.48;;;;;;;;;;5139168;27;21008;-81
2022/11/28 03:31:24;;;;;;;13.02;11.93;;;;;;;;;;5139731;27;20865;-80
2022/11/28 03:33:57;;;;;;;14.25;12.95;;;;;;;;;;5139987;27;20434;-80
2022/11/28 03:36:26;;;;;;;14.00;12.80;;;;;;;;;;5139447;27;20602;-80
2022/11/28 03:39:04;;;;;;;13.85;12.70;;;;;;;;;;5140022;27;20482;-80
2022/11/28 03:41:33;;;;;;;13.90;12.60;;;;;;;;;;5139398;27;20436;-80
2022/11/28 03:44:00;;;;;;;13.57;12.38;;;;;;;;;;5139491;27;20423;-82
2022/11/28 03:46:29;;;;;;;14.52;13.23;;;;;;;;;;5139620;27;20374;-80
2022/11/28 03:48:57;;;;;;;14.25;12.93;;;;;;;;;;5140024;27;20423;-82
2022/11/28 03:51:27;;;;;;;14.65;13.32;;;;;;;;;;5139609;27;20473;-80
2022/11/28 03:53:53;;;;;;;14.48;13.18;;;;;;;;;;5132989;27;20511;-82
2022/11/28 03:56:39;;;;;;;14.15;12.85;;;;;;;;;;5131064;27;20382;-82
2022/11/28 03:59:25;;;;;;;13.88;12.65;;;;;;;;;;5118955;27;20399;-80
2022/11/28 04:02:10;;;;;;;13.77;12.50;;;;;;;;;;5136073;27;20438;-82
2022/11/28 04:04:55;;;;;;;13.27;12.17;;;;;;;;;;5138835;27;20442;-80
2022/11/28 04:07:25;;;;;;;13.07;11.98;;;;;;;;;;5123284;27;20458;-82
2022/11/28 04:09:54;;;;;;;13.27;12.07;;;;;;;;;;5136240;27;20424;-81
2022/11/28 04:12:23;;;;;;;12.47;11.37;;;;;;;;;;5137979;27;20470;-80
2022/11/28 04:14:53;;;;;;;12.77;11.68;;;;;;;;;;5139356;27;20370;-80
2022/11/28 04:17:22;;;;;;;12.73;11.57;;;;;;;;;;5136756;27;20398;-80
2022/11/28 04:19:54;;;;;;;12.98;11.77;;;;;;;;;;5136062;27;20433;-80
2022/11/28 04:22:20;;;;;;;12.38;11.18;;;;;;;;;;5117498;27;21003;-80
2022/11/28 04:24:49;;;;;;;13.00;11.90;;;;;;;;;;5117911;27;20390;-80
2022/11/28 04:27:18;;;;;;;12.43;11.33;;;;;;;;;;5136135;27;20451;-82
2022/11/28 04:29:46;;;;;;;12.93;11.82;;;;;;;;;;5135888;27;20382;-80
2022/11/28 04:32:13;;;;;;;11.98;10.98;;;;;;;;;;5135616;27;20456;-81
2022/11/28 04:34:42;;;;;;;12.00;11.00;;;;;;;;;;5135970;27;20379;-81
2022/11/28 04:37:09;;;;;;;12.65;11.55;;;;;;;;;;5135625;27;20465;-80
2022/11/28 04:39:36;;;;;;;11.88;10.77;;;;;;;;;;5136055;27;20726;-82
2022/11/28 04:42:06;;;;;;;12.38;11.27;;;;;;;;;;5135394;27;20446;-82
2022/11/28 04:44:37;;;;;;;12.13;11.13;;;;;;;;;;5135473;27;20406;-82
2022/11/28 04:47:04;;;;;;;12.25;11.25;;;;;;;;;;5135413;27;20411;-80
2022/11/28 04:49:30;;;;;;;12.07;10.98;;;;;;;;;;5135338;27;20386;-81
2022/11/28 04:52:19;;;;;;;11.53;10.57;;;;;;;;;;5131988;27;20383;-81
2022/11/28 04:54:48;;;;;;;11.52;10.52;;;;;;;;;;5125459;27;20868;-81
2022/11/28 04:57:17;;;;;;;11.63;10.65;;;;;;;;;;5129812;27;20450;-80
2022/11/28 04:59:43;;;;;;;11.05;10.15;;;;;;;;;;5127791;27;20891;-82
2022/11/28 05:02:11;;;;;;;11.07;10.18;;;;;;;;;;5125074;27;20377;-80
2022/11/28 05:04:37;;;;;;;11.32;10.32;;;;;;;;;;5128307;27;20417;-81
2022/11/28 05:07:04;;;;;;;11.50;10.50;;;;;;;;;;5136396;27;20727;-81
2022/11/28 05:09:30;;;;;;;12.43;11.43;;;;;;;;;;5132924;27;20378;-82
2022/11/28 05:11:56;;;;;;;11.23;10.33;;;;;;;;;;5134645;27;20379;-80
2022/11/28 05:14:22;;;;;;;11.73;10.68;;;;;;;;;;5134647;27;20406;-83
2022/11/28 05:16:49;;;;;;;11.47;10.47;;;;;;;;;;5135105;27;20504;-80
2022/11/28 05:19:15;;;;;;;10.77;9.88;;;;;;;;;;5134605;27;20386;-80
2022/11/28 05:21:41;;;;;;;10.93;10.02;;;;;;;;;;5134584;27;20477;-81
2022/11/28 05:24:07;;;;;;;11.63;10.63;;;;;;;;;;5134660;27;20394;-80
2022/11/28 05:26:34;;;;;;;11.60;10.60;;;;;;;;;;5134841;27;20515;-81
2022/11/28 05:29:00;;;;;;;10.70;9.90;;;;;;;;;;5134248;27;20378;-81
2022/11/28 05:31:26;;;;;;;10.88;9.80;;;;;;;;;;5120805;27;20380;-82
2022/11/28 05:33:53;;;;;;;10.75;9.85;;;;;;;;;;5116791;27;20380;-81
2022/11/28 05:36:19;;;;;;;11.52;10.52;;;;;;;;;;5133051;27;20382;-82
2022/11/28 05:38:45;;;;;;;11.23;10.32;;;;;;;;;;5125113;27;20725;-81
2022/11/28 05:41:18;;;;;;;11.02;10.20;;;;;;;;;;5114806;27;20408;-82
2022/11/28 05:43:44;;;;;;;10.98;10.07;;;;;;;;;;5121480;27;20757;-81
2022/11/28 05:46:10;;;;;;;12.73;11.63;;;;;;;;;;5122145;27;20376;-81
2022/11/28 05:48:36;;;;;;;10.60;9.73;;;;;;;;;;5120544;27;20385;-80
2022/11/28 05:51:06;;;;;;;11.63;10.60;;;;;;;;;;5113656;27;20372;-82
2022/11/28 05:53:38;;;;;;;13.18;12.07;;;;;;;;;;5116215;27;20417;-82
2022/11/28 05:56:08;;;;;;;13.32;12.13;;;;;;;;;;5094393;28;20940;-80
2022/11/28 05:58:34;;;;;;;13.80;12.60;;;;;;;;;;5115378;27;20450;-82
2022/11/28 06:01:07;;;;;;;15.10;13.70;;;;;;;;;;5114318;27;20373;-81
2022/11/28 06:03:33;;;;;;;13.77;12.60;;;;;;;;;;5116228;27;20443;-81
2022/11/28 06:05:59;;;;;;;12.93;11.82;;;;;;;;;;5095602;28;20881;-82
2022/11/28 06:08:25;;;;;;;12.90;11.80;;;;;;;;;;5113479;27;20479;-81
2022/11/28 06:10:58;;;;;;;11.98;10.93;;;;;;;;;;5117389;27;20380;-81
2022/11/28 06:13:24;;;;;;;11.35;10.38;;;;;;;;;;5126485;27;20436;-82
2022/11/28 06:15:50;;;;;;;11.68;10.68;;;;;;;;;;5114697;27;20373;-82
2022/11/28 06:18:16;;;;;;;12.00;10.82;;;;;;;;;;5114858;27;20757;-81
2022/11/28 06:20:42;;;;;;;11.50;10.50;;;;;;;;;;5116129;27;20384;-80
2022/11/28 06:23:08;;;;;;;11.20;10.20;;;;;;;;;;5124855;27;20725;-80
2022/11/28 06:25:34;;;;;;;11.47;10.47;;;;;;;;;;5096834;27;20809;-81
2022/11/28 06:28:00;;;;;;;11.68;10.70;;;;;;;;;;5095915;28;20888;-82
2022/11/28 06:30:26;;;;;;;10.80;9.90;;;;;;;;;;5113310;27;20377;-82
2022/11/28 06:32:52;;;;;;;10.98;10.00;;;;;;;;;;5113852;27;20493;-82
2022/11/28 06:35:18;;;;;;;11.25;10.25;;;;;;;;;;5120277;27;20371;-81
2022/11/28 06:37:44;;;;;;;10.93;10.02;;;;;;;;;;5112407;27;20953;-82
2022/11/28 06:40:10;;;;;;;16.65;13.70;;;;;;;;;;5124957;27;20371;-81
2022/11/28 06:42:36;;;;;;;15.53;13.93;;;;;;;;;;5132243;27;20390;-81
2022/11/28 06:45:03;;;;;;;17.40;14.68;;;;;;;;;;5126496;27;20414;-82
2022/11/28 06:47:29;;;;;;;20.30;16.52;;;;;;;;;;5129287;27;20370;-81
2022/11/28 06:49:55;;;;;;;20.83;17.25;;;;;;;;;;5126832;27;20877;-80
2022/11/28 06:52:21;;;;;;;25.05;18.63;;;;;;;;;;5120736;27;20384;-82
2022/11/28 06:54:47;;;;;;;22.05;17.98;;;;;;;;;;5110147;27;20789;-82
2022/11/28 06:57:13;;;;;;;23.08;18.67;;;;;;;;;;5130996;27;20951;-82
2022/11/28 06:59:39;;;;;;;23.20;17.63;;;;;;;;;;5110835;27;20717;-82
2022/11/28 07:02:05;;;;;;;23.95;18.92;;;;;;;;;;5132662;27;20882;-82
2022/11/28 07:04:31;;;;;;;24.17;18.58;;;;;;;;;;5132375;27;20384;-83
2022/11/28 07:06:57;;;;;;;23.35;19.33;;;;;;;;;;5114491;27;20387;-81
2022/11/28 07:09:23;;;;;;;24.25;19.55;;;;;;;;;;5133326;27;20375;-81
2022/11/28 07:11:49;;;;;;;23.10;18.67;;;;;;;;;;5133092;27;20378;-83
2022/11/28 07:14:15;;;;;;;24.10;18.50;;;;;;;;;;5114762;28;20447;-81
2022/11/28 07:16:41;;;;;;;23.20;18.85;;;;;;;;;;5126633;27;20390;-80
2022/11/28 07:19:07;;;;;;;24.73;18.95;;;;;;;;;;5114096;27;20477;-81
2022/11/28 07:21:33;;;;;;;25.83;20.15;;;;;;;;;;5132751;27;20385;-81
2022/11/28 07:23:59;;;;;;;25.90;19.65;;;;;;;;;;5133242;27;20389;-80
2022/11/28 07:26:25;;;;;;;26.05;20.05;;;;;;;;;;5132817;27;20433;-81
2022/11/28 07:28:51;;;;;;;23.45;19.13;;;;;;;;;;5134340;27;20410;-81
2022/11/28 07:31:24;;;;;;;25.10;20.33;;;;;;;;;;5136649;27;20794;-80
2022/11/28 07:33:51;;;;;;;28.08;20.48;;;;;;;;;;5136743;27;20433;-81
2022/11/28 07:36:18;;;;;;;27.02;20.73;;;;;;;;;;5136733;27;20430;-80
2022/11/28 07:38:48;;;;;;;27.45;20.90;;;;;;;;;;5136647;27;20402;-82
2022/11/28 07:41:14;;;;;;;25.80;20.20;;;;;;;;;;5139358;27;20415;-79
2022/11/28 07:43:41;;;;;;;29.30;22.15;;;;;;;;;;5138658;27;20410;-80
2022/11/28 07:46:09;;;;;;;25.98;20.83;;;;;;;;;;5137870;27;20370;-83
2022/11/28 07:48:35;;;;;;;32.40;23.00;;;;;;;;;;5137254;27;20379;-82
2022/11/28 07:51:20;;;;;;;35.70;24.30;;;;;;;;;;5136574;27;20395;-81
2022/11/28 07:53:46;;;;;;;36.05;24.77;;;;;;;;;;5134290;27;20885;-80
2022/11/28 07:56:14;;;;;;;34.63;22.80;;;;;;;;;;5130119;27;20378;-82
2022/11/28 07:58:41;;;;;;;33.53;23.20;;;;;;;;;;5136417;27;20448;-81
2022/11/28 08:01:11;;;;;;;33.13;22.63;;;;;;;;;;5136284;27;20382;-81
2022/11/28 08:03:37;;;;;;;33.28;23.08;;;;;;;;;;5136449;27;20453;-81
2022/11/28 08:06:04;;;;;;;34.72;23.85;;;;;;;;;;5136500;27;20462;-82
2022/11/28 08:08:30;;;;;;;34.70;23.45;;;;;;;;;;5136404;27;20895;-82
2022/11/28 08:11:03;;;;;;;31.85;21.73;;;;;;;;;;5138852;27;20383;-80
2022/11/28 08:13:29;;;;;;;30.85;21.90;;;;;;;;;;5136481;27;20381;-80
2022/11/28 08:15:55;;;;;;;30.57;21.93;;;;;;;;;;5137861;27;20365;-80
2022/11/28 08:18:21;;;;;;;30.42;20.77;;;;;;;;;;5131894;27;20413;-79
2022/11/28 08:20:47;;;;;;;28.33;20.90;;;;;;;;;;5131911;27;20462;-82
2022/11/28 08:23:13;;;;;;;26.52;20.17;;;;;;;;;;5135848;27;20386;-80
2022/11/28 08:25:39;;;;;;;32.28;22.63;;;;;;;;;;5116516;27;20382;-82
2022/11/28 08:28:05;;;;;;;31.50;23.08;;;;;;;;;;5135657;27;20371;-81
2022/11/28 08:30:31;;;;;;;30.88;23.10;;;;;;;;;;5135600;27;20831;-80
2022/11/28 08:32:58;;;;;;;30.77;23.38;;;;;;;;;;5135709;27;20438;-82
2022/11/28 08:35:24;;;;;;;28.50;22.15;;;;;;;;;;5135999;27;20378;-82
2022/11/28 08:37:50;;;;;;;28.48;22.33;;;;;;;;;;5117181;27;20883;-82
2022/11/28 08:40:16;;;;;;;26.33;20.98;;;;;;;;;;5134178;27;20401;-82
2022/11/28 08:42:42;;;;;;;24.63;20.65;;;;;;;;;;5135674;27;20383;-81
2022/11/28 08:45:10;;;;;;;25.57;21.13;;;;;;;;;;5135760;27;20406;-81
2022/11/28 08:47:36;;;;;;;23.08;19.52;;;;;;;;;;5135696;27;20382;-82
2022/11/28 08:50:03;;;;;;;22.75;19.42;;;;;;;;;;5116001;27;20463;-81
2022/11/28 08:52:29;;;;;;;22.67;19.58;;;;;;;;;;5109685;27;20410;-82
2022/11/28 08:54:55;;;;;;;25.38;20.65;;;;;;;;;;5108103;27;20442;-82
2022/11/28 08:57:21;;;;;;;23.92;19.70;;;;;;;;;;5135162;27;20399;-82
2022/11/28 08:59:47;;;;;;;26.40;22.05;;;;;;;;;;5133387;27;20393;-80
2022/11/28 09:02:13;;;;;;;27.73;22.52;;;;;;;;;;5132639;27;20382;-82
2022/11/28 09:04:39;;;;;;;22.35;19.95;;;;;;;;;;5116877;27;20939;-82
2022/11/28 09:07:05;;;;;;;58.45;38.83;;;;;;;;;;5134955;27;20410;-81
2022/11/28 09:09:31;;;;;;;29.35;23.05;;;;;;;;;;5125272;27;20436;-80
2022/11/28 09:11:56;;;;;;;24.05;20.00;;;;;;;;;;5119841;27;20860;-81
2022/11/28 09:14:25;;;;;;;20.27;18.17;;;;;;;;;;5136682;27;20386;-82
2022/11/28 09:16:51;;;;;;;21.83;18.97;;;;;;;;;;5134644;27;20543;-82
2022/11/28 09:19:17;;;;;;;19.70;17.60;;;;;;;;;;5134192;27;20923;-82
2022/11/28 09:21:43;;;;;;;21.17;18.98;;;;;;;;;;5134143;27;20391;-82
2022/11/28 09:24:10;;;;;;;22.75;19.27;;;;;;;;;;5134578;27;20371;-81
2022/11/28 09:26:36;;;;;;;20.80;18.60;;;;;;;;;;5133013;27;20386;-81
2022/11/28 09:29:02;;;;;;;20.98;18.67;;;;;;;;;;5118233;27;20405;-81
2022/11/28 09:31:28;;;;;;;20.95;18.65;;;;;;;;;;5128686;27;20375;-81
2022/11/28 09:33:54;;;;;;;22.20;19.58;;;;;;;;;;5134461;27;20379;-81
2022/11/28 09:36:21;;;;;;;22.10;19.70;;;;;;;;;;5134642;27;20450;-81
2022/11/28 09:38:47;;;;;;;25.93;20.73;;;;;;;;;;5134420;27;20441;-81
2022/11/28 09:41:26;;;;;;;22.75;20.13;;;;;;;;;;5134834;27;20382;-81
2022/11/28 09:43:53;;;;;;;23.30;19.52;;;;;;;;;;5134089;27;20916;-82
2022/11/28 09:46:25;;;;;;;21.83;19.20;;;;;;;;;;5133707;27;20383;-80
2022/11/28 09:48:53;;;;;;;22.47;19.73;;;;;;;;;;5134360;27;20374;-80
2022/11/28 09:51:25;;;;;;;25.13;20.77;;;;;;;;;;5133402;27;20425;-80
2022/11/28 09:54:03;;;;;;;27.07;22.67;;;;;;;;;;5131094;27;20501;-81
2022/11/28 09:56:29;;;;;;;29.63;23.10;;;;;;;;;;5130233;27;20377;-81
2022/11/28 09:59:02;;;;;;;27.08;21.02;;;;;;;;;;5134020;27;20506;-81
2022/11/28 10:01:48;;;;;;;27.15;22.58;;;;;;;;;;5139927;27;20504;-81
2022/11/28 10:04:24;;;;;;;25.17;21.48;;;;;;;;;;5082064;27;20506;-80
2022/11/28 10:07:09;;;;;;;25.90;21.52;;;;;;;;;;5115183;27;20493;-81
2022/11/28 10:09:35;;;;;;;25.25;20.25;;;;;;;;;;5115057;27;20392;-80
2022/11/28 10:12:22;;;;;;;25.50;20.45;;;;;;;;;;5115188;27;20781;-80
2022/11/28 10:14:54;;;;;;;21.58;19.05;;;;;;;;;;5114306;27;20442;-82
2022/11/28 10:17:26;;;;;;;23.27;19.50;;;;;;;;;;5133880;27;20443;-80
2022/11/28 10:20:13;;;;;;;21.50;19.10;;;;;;;;;;5132135;27;20439;-81
2022/11/28 10:22:43;;;;;;;25.03;21.37;;;;;;;;;;5133511;27;20719;-81
2022/11/28 10:25:15;;;;;;;24.20;21.70;;;;;;;;;;5133692;27;20446;-81
2022/11/28 10:27:42;;;;;;;23.30;20.40;;;;;;;;;;5133693;27;20456;-81
2022/11/28 10:30:14;;;;;;;23.38;20.52;;;;;;;;;;5133380;27;20381;-81
2022/11/28 10:32:42;;;;;;;27.40;21.52;;;;;;;;;;5115200;27;20545;-81
2022/11/28 10:35:34;;;;;;;27.52;22.90;;;;;;;;;;5133634;27;20371;-81
2022/11/28 10:38:00;;;;;;;31.40;23.85;;;;;;;;;;5128173;27;20444;-81
2022/11/28 10:40:49;;;;;;;30.17;23.70;;;;;;;;;;5133462;27;20386;-82
2022/11/28 10:43:35;;;;;;;36.22;24.55;;;;;;;;;;5132368;27;20462;-80
2022/11/28 10:46:01;;;;;;;41.90;28.03;;;;;;;;;;5115982;27;20466;-80
2022/11/28 10:48:36;;;;;;;37.33;26.60;;;;;;;;;;5130612;27;20473;-81
2022/11/28 10:51:11;;;;;;;39.75;26.02;;;;;;;;;;5126610;27;20383;-81
2022/11/28 10:53:41;;;;;;;35.20;26.00;;;;;;;;;;5131773;27;20379;-82
2022/11/28 10:56:12;;;;;;;41.78;29.77;;;;;;;;;;5126019;27;20414;-82
2022/11/28 10:59:05;;;;;;;38.45;26.75;;;;;;;;;;5129606;27;20462;-82
2022/11/28 11:01:33;;;;;;;38.75;27.67;;;;;;;;;;5068989;27;20797;-81
2022/11/28 11:03:59;;;;;;;37.42;27.00;;;;;;;;;;5129999;27;20836;-82
2022/11/28 11:06:26;;;;;;;37.75;26.65;;;;;;;;;;5137130;27;20382;-82
2022/11/28 11:08:52;;;;;;;37.83;26.38;;;;;;;;;;5117048;27;20779;-83
2022/11/28 11:11:24;;;;;;;39.17;27.15;;;;;;;;;;5136902;27;20378;-84
2022/11/28 11:13:56;;;;;;;33.97;25.00;;;;;;;;;;5144546;27;20371;-82
2022/11/28 11:16:22;;;;;;;38.97;28.38;;;;;;;;;;5140764;27;20379;-83
2022/11/28 11:18:48;;;;;;;36.95;25.85;;;;;;;;;;5137327;27;20414;-82
2022/11/28 11:21:23;;;;;;;33.60;25.20;;;;;;;;;;5118826;27;20398;-83
2022/11/28 11:24:09;;;;;;;32.53;24.65;;;;;;;;;;5137335;27;20378;-83
2022/11/28 11:26:38;;;;;;;40.83;25.38;;;;;;;;;;5137413;27;20846;-83
2022/11/28 11:29:04;;;;;;;33.03;23.77;;;;;;;;;;5137200;27;20379;-81
2022/11/28 11:31:32;;;;;;;27.60;22.50;;;;;;;;;;5130842;27;20397;-83
2022/11/28 11:34:02;;;;;;;28.85;23.45;;;;;;;;;;5135167;27;20387;-82
2022/11/28 11:36:30;;;;;;;28.05;22.33;;;;;;;;;;5127348;27;20415;-81
2022/11/28 11:39:11;;;;;;;27.25;21.13;;;;;;;;;;5136968;27;20501;-81
2022/11/28 11:41:44;;;;;;;24.52;21.27;;;;;;;;;;5136603;27;20370;-81
2022/11/28 11:44:13;;;;;;;23.27;20.20;;;;;;;;;;5136875;27;20482;-80
2022/11/28 11:46:50;;;;;;;23.38;20.85;;;;;;;;;;5136915;27;20431;-81
2022/11/28 11:49:45;;;;;;;22.63;20.13;;;;;;;;;;5136897;27;20882;-80
2022/11/28 11:52:14;;;;;;;24.25;20.98;;;;;;;;;;5114962;27;20383;-81
2022/11/28 11:54:58;;;;;;;22.88;20.40;;;;;;;;;;5127453;27;20416;-82
2022/11/28 11:57:24;;;;;;;25.23;21.23;;;;;;;;;;5136330;27;20402;-80
2022/11/28 11:59:55;;;;;;;24.73;21.88;;;;;;;;;;5132791;27;20418;-78
2022/11/28 12:02:33;;;;;;;26.50;22.50;;;;;;;;;;5133668;27;20397;-79
2022/11/28 12:05:02;;;;;;;28.43;22.97;;;;;;;;;;5135976;27;20435;-79
2022/11/28 12:07:36;;;;;;;25.85;23.08;;;;;;;;;;5129538;27;20377;-79
2022/11/28 12:10:03;;;;;;;52.97;38.63;;;;;;;;;;5130143;27;20462;-79
2022/11/28 12:12:37;;;;;;;27.40;22.15;;;;;;;;;;5115387;27;20793;-80
2022/11/28 12:15:03;;;;;;;23.45;20.80;;;;;;;;;;5126557;27;20386;-81
2022/11/28 12:17:46;;;;;;;20.73;18.57;;;;;;;;;;5135930;27;20425;-81
2022/11/28 12:20:18;;;;;;;25.92;20.05;;;;;;;;;;5123757;27;20897;-79
2022/11/28 12:23:08;;;;;;;24.10;21.20;;;;;;;;;;5135941;27;20390;-79
2022/11/28 12:25:37;;;;;;;23.95;20.15;;;;;;;;;;5122236;27;20409;-79
2022/11/28 12:28:21;;;;;;;22.27;19.83;;;;;;;;;;5135671;27;20378;-79
2022/11/28 12:31:08;;;;;;;22.30;19.85;;;;;;;;;;5135407;27;20375;-79
2022/11/28 12:33:57;;;;;;;24.67;19.80;;;;;;;;;;5135379;27;20402;-79
2022/11/28 12:36:28;;;;;;;19.73;17.70;;;;;;;;;;5119270;27;20383;-79
2022/11/28 12:39:01;;;;;;;23.95;20.15;;;;;;;;;;5116412;27;20417;-79
2022/11/28 12:41:45;;;;;;;23.52;19.60;;;;;;;;;;5127636;27;20464;-80
2022/11/28 12:44:14;;;;;;;27.38;22.10;;;;;;;;;;5135446;27;20828;-80
2022/11/28 12:46:47;;;;;;;26.73;21.63;;;;;;;;;;5135255;27;20831;-81
2022/11/28 12:49:19;;;;;;;22.65;20.17;;;;;;;;;;5135046;27;20419;-79
2022/11/28 12:52:03;;;;;;;22.88;19.40;;;;;;;;;;5135163;27;20374;-80
2022/11/28 12:54:41;;;;;;;27.52;20.55;;;;;;;;;;5135599;27;20397;-81
2022/11/28 12:57:17;;;;;;;24.30;20.98;;;;;;;;;;5115911;27;20387;-80
2022/11/28 12:59:42;;;;;;;25.23;20.55;;;;;;;;;;5130364;27;20414;-79
2022/11/28 13:02:25;;;;;;;23.95;21.00;;;;;;;;;;5134507;27;20410;-81
2022/11/28 13:05:00;;;;;;;28.00;22.38;;;;;;;;;;5137764;27;20831;-81
2022/11/28 13:07:26;;;;;;;24.45;21.02;;;;;;;;;;5121322;27;20379;-80
2022/11/28 13:10:08;;;;;;;27.60;22.27;;;;;;;;;;5135152;27;20777;-79
2022/11/28 13:12:49;;;;;;;27.00;22.70;;;;;;;;;;5134992;27;20370;-79
2022/11/28 13:15:15;;;;;;;25.70;21.77;;;;;;;;;;5116322;27;20383;-80
2022/11/28 13:17:55;;;;;;;26.45;21.92;;;;;;;;;;5134877;27;20417;-81
2022/11/28 13:20:28;;;;;;;24.95;21.50;;;;;;;;;;5134643;27;20439;-80
2022/11/28 13:23:00;;;;;;;24.02;21.20;;;;;;;;;;5134651;27;20445;-81
2022/11/28 13:25:33;;;;;;;23.45;20.98;;;;;;;;;;5134581;27;20882;-81
2022/11/28 13:28:05;;;;;;;24.73;20.45;;;;;;;;;;5116502;27;20379;-79
2022/11/28 13:30:36;;;;;;;24.08;20.48;;;;;;;;;;5134607;27;20374;-79
2022/11/28 13:33:11;;;;;;;22.38;20.02;;;;;;;;;;5134872;27;20772;-81
2022/11/28 13:35:39;;;;;;;26.13;20.02;;;;;;;;;;5134197;27;20466;-81
2022/11/28 13:38:24;;;;;;;23.77;19.67;;;;;;;;;;5134547;27;20871;-80
2022/11/28 13:41:03;;;;;;;21.15;18.05;;;;;;;;;;5134143;27;20386;-79
2022/11/28 13:43:47;;;;;;;18.98;16.98;;;;;;;;;;5134574;27;20375;-79
2022/11/28 13:46:14;;;;;;;21.08;18.83;;;;;;;;;;5115505;27;20883;-79
2022/11/28 13:48:40;;;;;;;26.90;19.77;;;;;;;;;;5134562;27;20389;-80
2022/11/28 13:51:11;;;;;;;23.80;19.50;;;;;;;;;;5134405;27;20458;-80
2022/11/28 13:53:38;;;;;;;23.38;20.33;;;;;;;;;;5115462;27;20395;-79
2022/11/28 13:56:04;;;;;;;24.88;20.90;;;;;;;;;;5134141;27;20383;-81
2022/11/28 13:58:46;;;;;;;28.00;22.30;;;;;;;;;;5115336;27;20403;-81
2022/11/28 14:01:14;;;;;;;26.35;22.55;;;;;;;;;;5133870;27;20828;-79
2022/11/28 14:03:48;;;;;;;31.60;24.13;;;;;;;;;;5133999;27;20443;-81
2022/11/28 14:06:16;;;;;;;31.75;24.67;;;;;;;;;;5133964;27;20398;-79
2022/11/28 14:08:44;;;;;;;42.67;28.97;;;;;;;;;;5133922;27;20449;-79
2022/11/28 14:11:28;;;;;;;30.42;25.20;;;;;;;;;;5133869;27;20379;-80
2022/11/28 14:14:03;;;;;;;30.70;23.90;;;;;;;;;;5136070;27;20378;-81
2022/11/28 14:16:35;;;;;;;28.77;23.10;;;;;;;;;;5133725;27;20379;-79
2022/11/28 14:19:01;;;;;;;33.10;26.05;;;;;;;;;;5133447;27;20879;-81
2022/11/28 14:21:46;;;;;;;34.72;26.10;;;;;;;;;;5133390;27;20378;-80
2022/11/28 14:24:31;;;;;;;29.30;23.00;;;;;;;;;;5133686;27;20371;-79
2022/11/28 14:26:58;;;;;;;25.55;21.92;;;;;;;;;;5115030;27;20441;-79
2022/11/28 14:29:27;;;;;;;35.85;26.70;;;;;;;;;;5124621;27;20375;-81
2022/11/28 14:31:55;;;;;;;28.52;22.85;;;;;;;;;;5133125;27;20423;-81
2022/11/28 14:34:36;;;;;;;26.92;22.15;;;;;;;;;;5133507;27;20767;-81